sensor_id;sensor_type;location;lat;lon;timestamp;P1;durP1;ratioP1;P2;durP2;ratioP2
71435;SDS011;59251;51.326;12.370;2022-08-19T00:00:11;39.73;;;23.67;;
71435;SDS011;59251;51.326;12.370;2022-08-19T00:02:39;40.35;;;24.10;;
71435;SDS011;59251;51.326;12.370;2022-08-19T00:05:06;41.78;;;24.80;;
71435;SDS011;59251;51.326;12.370;2022-08-19T00:07:33;40.03;;;24.70;;
71435;SDS011;59251;51.326;12.370;2022-08-19T00:13:14;43.60;;;24.27;;
71435;SDS011;59251;51.326;12.370;2022-08-19T00:15:40;43.00;;;24.80;;
71435;SDS011;59251;51.326;12.370;2022-08-19T00:18:09;43.85;;;24.40;;
71435;SDS011;59251;51.326;12.370;2022-08-19T00:20:35;45.03;;;26.63;;
71435;SDS011;59251;51.326;12.370;2022-08-19T00:23:03;43.17;;;25.55;;
71435;SDS011;59251;51.326;12.370;2022-08-19T00:25:28;43.40;;;25.03;;
71435;SDS011;59251;51.326;12.370;2022-08-19T00:27:54;37.80;;;24.20;;
71435;SDS011;59251;51.326;12.370;2022-08-19T00:30:19;40.03;;;24.63;;
71435;SDS011;59251;51.326;12.370;2022-08-19T00:32:45;42.72;;;24.27;;
71435;SDS011;59251;51.326;12.370;2022-08-19T00:35:10;42.87;;;25.20;;
71435;SDS011;59251;51.326;12.370;2022-08-19T00:37:36;48.33;;;28.80;;
71435;SDS011;59251;51.326;12.370;2022-08-19T00:40:03;47.78;;;27.60;;
71435;SDS011;59251;51.326;12.370;2022-08-19T00:42:30;48.05;;;27.90;;
71435;SDS011;59251;51.326;12.370;2022-08-19T00:44:56;47.63;;;26.87;;
71435;SDS011;59251;51.326;12.370;2022-08-19T00:47:21;51.60;;;26.85;;
71435;SDS011;59251;51.326;12.370;2022-08-19T00:49:47;44.90;;;26.17;;
71435;SDS011;59251;51.326;12.370;2022-08-19T00:52:20;47.95;;;27.08;;
71435;SDS011;59251;51.326;12.370;2022-08-19T00:54:48;47.08;;;26.42;;
71435;SDS011;59251;51.326;12.370;2022-08-19T00:57:16;48.97;;;27.30;;
71435;SDS011;59251;51.326;12.370;2022-08-19T00:59:44;49.53;;;27.58;;
71435;SDS011;59251;51.326;12.370;2022-08-19T01:02:11;46.97;;;29.30;;
71435;SDS011;59251;51.326;12.370;2022-08-19T01:04:37;48.97;;;27.73;;
71435;SDS011;59251;51.326;12.370;2022-08-19T01:07:03;51.38;;;29.88;;
71435;SDS011;59251;51.326;12.370;2022-08-19T01:09:29;49.67;;;28.37;;
71435;SDS011;59251;51.326;12.370;2022-08-19T01:11:55;53.42;;;31.20;;
71435;SDS011;59251;51.326;12.370;2022-08-19T01:14:21;51.28;;;29.05;;
71435;SDS011;59251;51.326;12.370;2022-08-19T01:16:47;50.50;;;29.52;;
71435;SDS011;59251;51.326;12.370;2022-08-19T01:19:18;53.43;;;29.70;;
71435;SDS011;59251;51.326;12.370;2022-08-19T01:21:52;54.35;;;29.40;;
71435;SDS011;59251;51.326;12.370;2022-08-19T01:24:22;51.60;;;28.40;;
71435;SDS011;59251;51.326;12.370;2022-08-19T01:26:48;53.03;;;30.10;;
71435;SDS011;59251;51.326;12.370;2022-08-19T01:29:13;54.33;;;30.07;;
71435;SDS011;59251;51.326;12.370;2022-08-19T01:31:39;51.63;;;30.87;;
71435;SDS011;59251;51.326;12.370;2022-08-19T01:34:04;54.50;;;30.43;;
71435;SDS011;59251;51.326;12.370;2022-08-19T01:36:33;52.47;;;27.65;;
71435;SDS011;59251;51.326;12.370;2022-08-19T01:39:08;56.40;;;30.95;;
71435;SDS011;59251;51.326;12.370;2022-08-19T01:41:35;51.92;;;27.80;;
71435;SDS011;59251;51.326;12.370;2022-08-19T01:44:02;57.83;;;31.75;;
71435;SDS011;59251;51.326;12.370;2022-08-19T01:46:29;51.60;;;29.17;;
71435;SDS011;59251;51.326;12.370;2022-08-19T01:48:55;58.80;;;27.15;;
71435;SDS011;59251;51.326;12.370;2022-08-19T01:51:21;51.72;;;28.30;;
71435;SDS011;59251;51.326;12.370;2022-08-19T01:53:50;53.80;;;29.83;;
71435;SDS011;59251;51.326;12.370;2022-08-19T01:56:16;52.75;;;29.05;;
71435;SDS011;59251;51.326;12.370;2022-08-19T01:58:44;52.72;;;29.50;;
71435;SDS011;59251;51.326;12.370;2022-08-19T02:01:14;55.17;;;29.75;;
71435;SDS011;59251;51.326;12.370;2022-08-19T02:03:40;51.57;;;29.00;;
71435;SDS011;59251;51.326;12.370;2022-08-19T02:06:05;52.80;;;30.17;;
71435;SDS011;59251;51.326;12.370;2022-08-19T02:08:31;55.03;;;32.43;;
71435;SDS011;59251;51.326;12.370;2022-08-19T02:10:59;55.40;;;31.70;;
71435;SDS011;59251;51.326;12.370;2022-08-19T02:13:25;56.40;;;30.97;;
71435;SDS011;59251;51.326;12.370;2022-08-19T02:15:51;55.53;;;29.40;;
71435;SDS011;59251;51.326;12.370;2022-08-19T02:18:16;59.13;;;33.03;;
71435;SDS011;59251;51.326;12.370;2022-08-19T02:20:42;61.05;;;33.22;;
71435;SDS011;59251;51.326;12.370;2022-08-19T02:23:10;55.17;;;30.70;;
71435;SDS011;59251;51.326;12.370;2022-08-19T02:25:37;52.53;;;30.23;;
71435;SDS011;59251;51.326;12.370;2022-08-19T02:28:03;54.17;;;31.88;;
71435;SDS011;59251;51.326;12.370;2022-08-19T02:30:29;51.90;;;30.17;;
71435;SDS011;59251;51.326;12.370;2022-08-19T02:32:55;51.33;;;30.47;;
71435;SDS011;59251;51.326;12.370;2022-08-19T02:35:20;48.53;;;28.77;;
71435;SDS011;59251;51.326;12.370;2022-08-19T02:37:46;48.87;;;30.00;;
71435;SDS011;59251;51.326;12.370;2022-08-19T02:40:31;49.95;;;28.80;;
71435;SDS011;59251;51.326;12.370;2022-08-19T02:43:03;47.83;;;28.33;;
71435;SDS011;59251;51.326;12.370;2022-08-19T02:45:36;49.65;;;29.73;;
71435;SDS011;59251;51.326;12.370;2022-08-19T02:48:04;51.50;;;29.20;;
71435;SDS011;59251;51.326;12.370;2022-08-19T02:50:30;46.80;;;26.30;;
71435;SDS011;59251;51.326;12.370;2022-08-19T02:52:56;47.35;;;29.42;;
71435;SDS011;59251;51.326;12.370;2022-08-19T02:55:22;53.40;;;30.88;;
71435;SDS011;59251;51.326;12.370;2022-08-19T02:57:48;50.40;;;30.73;;
71435;SDS011;59251;51.326;12.370;2022-08-19T03:00:13;47.78;;;28.55;;
71435;SDS011;59251;51.326;12.370;2022-08-19T03:02:40;43.60;;;28.42;;
71435;SDS011;59251;51.326;12.370;2022-08-19T03:05:06;44.03;;;28.07;;
71435;SDS011;59251;51.326;12.370;2022-08-19T03:07:32;48.22;;;28.00;;
71435;SDS011;59251;51.326;12.370;2022-08-19T03:09:58;43.23;;;28.13;;
71435;SDS011;59251;51.326;12.370;2022-08-19T03:12:23;42.25;;;27.40;;
71435;SDS011;59251;51.326;12.370;2022-08-19T03:14:49;41.07;;;24.90;;
71435;SDS011;59251;51.326;12.370;2022-08-19T03:17:15;36.75;;;24.25;;
71435;SDS011;59251;51.326;12.370;2022-08-19T03:19:41;35.90;;;24.30;;
71435;SDS011;59251;51.326;12.370;2022-08-19T03:22:08;33.05;;;23.00;;
71435;SDS011;59251;51.326;12.370;2022-08-19T03:24:33;34.03;;;23.42;;
71435;SDS011;59251;51.326;12.370;2022-08-19T03:26:59;34.37;;;23.77;;
71435;SDS011;59251;51.326;12.370;2022-08-19T03:29:28;33.97;;;23.37;;
71435;SDS011;59251;51.326;12.370;2022-08-19T03:31:56;35.08;;;23.52;;
71435;SDS011;59251;51.326;12.370;2022-08-19T03:34:26;32.60;;;22.23;;
71435;SDS011;59251;51.326;12.370;2022-08-19T03:36:54;33.50;;;22.73;;
71435;SDS011;59251;51.326;12.370;2022-08-19T03:39:21;35.90;;;22.13;;
71435;SDS011;59251;51.326;12.370;2022-08-19T03:41:48;34.35;;;23.02;;
71435;SDS011;59251;51.326;12.370;2022-08-19T03:44:21;32.13;;;21.98;;
71435;SDS011;59251;51.326;12.370;2022-08-19T03:46:48;29.90;;;20.58;;
71435;SDS011;59251;51.326;12.370;2022-08-19T03:49:16;30.65;;;20.60;;
71435;SDS011;59251;51.326;12.370;2022-08-19T03:51:42;32.20;;;20.67;;
71435;SDS011;59251;51.326;12.370;2022-08-19T03:54:09;28.75;;;20.38;;
71435;SDS011;59251;51.326;12.370;2022-08-19T03:56:38;32.22;;;21.30;;
71435;SDS011;59251;51.326;12.370;2022-08-19T03:59:05;35.17;;;23.35;;
71435;SDS011;59251;51.326;12.370;2022-08-19T04:01:32;34.53;;;23.23;;
71435;SDS011;59251;51.326;12.370;2022-08-19T04:03:59;35.20;;;23.83;;
71435;SDS011;59251;51.326;12.370;2022-08-19T04:06:27;37.72;;;24.15;;
71435;SDS011;59251;51.326;12.370;2022-08-19T04:08:55;30.63;;;22.35;;
71435;SDS011;59251;51.326;12.370;2022-08-19T04:11:26;33.53;;;23.27;;
71435;SDS011;59251;51.326;12.370;2022-08-19T04:13:54;38.55;;;25.85;;
71435;SDS011;59251;51.326;12.370;2022-08-19T04:16:21;37.53;;;23.77;;
71435;SDS011;59251;51.326;12.370;2022-08-19T04:18:48;31.80;;;21.85;;
71435;SDS011;59251;51.326;12.370;2022-08-19T04:21:15;35.00;;;23.27;;
71435;SDS011;59251;51.326;12.370;2022-08-19T04:23:42;34.90;;;23.43;;
71435;SDS011;59251;51.326;12.370;2022-08-19T04:26:12;37.25;;;24.05;;
71435;SDS011;59251;51.326;12.370;2022-08-19T04:28:42;37.70;;;24.87;;
71435;SDS011;59251;51.326;12.370;2022-08-19T04:31:12;40.42;;;25.13;;
71435;SDS011;59251;51.326;12.370;2022-08-19T04:33:40;38.53;;;25.75;;
71435;SDS011;59251;51.326;12.370;2022-08-19T04:36:06;42.15;;;27.48;;
71435;SDS011;59251;51.326;12.370;2022-08-19T04:38:32;40.35;;;25.70;;
71435;SDS011;59251;51.326;12.370;2022-08-19T04:40:58;43.80;;;27.17;;
71435;SDS011;59251;51.326;12.370;2022-08-19T04:43:42;42.17;;;26.23;;
71435;SDS011;59251;51.326;12.370;2022-08-19T04:46:12;44.00;;;28.42;;
71435;SDS011;59251;51.326;12.370;2022-08-19T04:48:38;50.97;;;30.90;;
71435;SDS011;59251;51.326;12.370;2022-08-19T04:51:08;47.25;;;30.42;;
71435;SDS011;59251;51.326;12.370;2022-08-19T04:53:37;48.33;;;30.50;;
71435;SDS011;59251;51.326;12.370;2022-08-19T04:56:05;50.75;;;30.90;;
71435;SDS011;59251;51.326;12.370;2022-08-19T04:58:41;47.20;;;30.77;;
71435;SDS011;59251;51.326;12.370;2022-08-19T05:01:08;49.88;;;30.77;;
71435;SDS011;59251;51.326;12.370;2022-08-19T05:03:35;49.30;;;31.02;;
71435;SDS011;59251;51.326;12.370;2022-08-19T05:06:07;46.35;;;30.27;;
71435;SDS011;59251;51.326;12.370;2022-08-19T05:08:36;49.03;;;30.83;;
71435;SDS011;59251;51.326;12.370;2022-08-19T05:11:08;48.05;;;30.55;;
71435;SDS011;59251;51.326;12.370;2022-08-19T05:13:37;49.17;;;30.83;;
71435;SDS011;59251;51.326;12.370;2022-08-19T05:16:02;46.50;;;29.20;;
71435;SDS011;59251;51.326;12.370;2022-08-19T05:18:28;45.95;;;29.15;;
71435;SDS011;59251;51.326;12.370;2022-08-19T05:21:13;43.55;;;27.90;;
71435;SDS011;59251;51.326;12.370;2022-08-19T05:23:58;50.40;;;31.42;;
71435;SDS011;59251;51.326;12.370;2022-08-19T05:26:24;47.90;;;30.37;;
71435;SDS011;59251;51.326;12.370;2022-08-19T05:28:51;52.30;;;32.67;;
71435;SDS011;59251;51.326;12.370;2022-08-19T05:31:18;52.87;;;31.43;;
71435;SDS011;59251;51.326;12.370;2022-08-19T05:33:44;52.33;;;31.55;;
71435;SDS011;59251;51.326;12.370;2022-08-19T05:36:09;54.23;;;33.03;;
71435;SDS011;59251;51.326;12.370;2022-08-19T05:38:35;49.30;;;31.02;;
71435;SDS011;59251;51.326;12.370;2022-08-19T05:41:08;54.80;;;31.93;;
71435;SDS011;59251;51.326;12.370;2022-08-19T05:43:34;50.63;;;30.77;;
71435;SDS011;59251;51.326;12.370;2022-08-19T05:46:00;50.07;;;30.97;;
71435;SDS011;59251;51.326;12.370;2022-08-19T05:48:25;49.80;;;31.77;;
71435;SDS011;59251;51.326;12.370;2022-08-19T05:50:51;55.63;;;32.53;;
71435;SDS011;59251;51.326;12.370;2022-08-19T05:53:17;49.80;;;30.42;;
71435;SDS011;59251;51.326;12.370;2022-08-19T05:55:42;52.60;;;32.83;;
71435;SDS011;59251;51.326;12.370;2022-08-19T05:58:08;56.28;;;33.33;;
71435;SDS011;59251;51.326;12.370;2022-08-19T06:00:34;50.00;;;31.17;;
71435;SDS011;59251;51.326;12.370;2022-08-19T06:03:01;52.00;;;32.83;;
71435;SDS011;59251;51.326;12.370;2022-08-19T06:05:29;52.23;;;31.97;;
71435;SDS011;59251;51.326;12.370;2022-08-19T06:07:55;53.83;;;33.50;;
71435;SDS011;59251;51.326;12.370;2022-08-19T06:10:21;54.70;;;32.60;;
71435;SDS011;59251;51.326;12.370;2022-08-19T06:12:47;52.20;;;33.47;;
71435;SDS011;59251;51.326;12.370;2022-08-19T06:15:13;51.22;;;32.10;;
71435;SDS011;59251;51.326;12.370;2022-08-19T06:17:39;54.72;;;34.25;;
71435;SDS011;59251;51.326;12.370;2022-08-19T06:20:05;50.93;;;33.37;;
71435;SDS011;59251;51.326;12.370;2022-08-19T06:22:39;52.75;;;31.77;;
71435;SDS011;59251;51.326;12.370;2022-08-19T06:25:06;53.67;;;32.20;;
71435;SDS011;59251;51.326;12.370;2022-08-19T06:27:34;47.95;;;30.60;;
71435;SDS011;59251;51.326;12.370;2022-08-19T06:30:00;50.65;;;32.40;;
71435;SDS011;59251;51.326;12.370;2022-08-19T06:32:27;51.40;;;30.80;;
71435;SDS011;59251;51.326;12.370;2022-08-19T06:34:52;51.72;;;32.63;;
71435;SDS011;59251;51.326;12.370;2022-08-19T06:37:17;53.43;;;32.53;;
71435;SDS011;59251;51.326;12.370;2022-08-19T06:39:44;53.03;;;33.73;;
71435;SDS011;59251;51.326;12.370;2022-08-19T06:42:10;50.05;;;31.27;;
71435;SDS011;59251;51.326;12.370;2022-08-19T06:44:39;48.65;;;32.13;;
71435;SDS011;59251;51.326;12.370;2022-08-19T06:47:07;51.40;;;32.53;;
71435;SDS011;59251;51.326;12.370;2022-08-19T06:49:34;51.65;;;30.80;;
71435;SDS011;59251;51.326;12.370;2022-08-19T06:52:00;55.15;;;32.97;;
71435;SDS011;59251;51.326;12.370;2022-08-19T06:54:27;55.58;;;34.95;;
71435;SDS011;59251;51.326;12.370;2022-08-19T06:56:58;58.55;;;35.05;;
71435;SDS011;59251;51.326;12.370;2022-08-19T06:59:27;58.70;;;34.53;;
71435;SDS011;59251;51.326;12.370;2022-08-19T07:01:55;54.95;;;31.25;;
71435;SDS011;59251;51.326;12.370;2022-08-19T07:04:29;59.42;;;33.47;;
71435;SDS011;59251;51.326;12.370;2022-08-19T07:09:25;57.45;;;34.38;;
71435;SDS011;59251;51.326;12.370;2022-08-19T07:11:51;55.43;;;32.70;;
71435;SDS011;59251;51.326;12.370;2022-08-19T07:14:19;55.85;;;32.65;;
71435;SDS011;59251;51.326;12.370;2022-08-19T07:16:47;52.78;;;32.47;;
71435;SDS011;59251;51.326;12.370;2022-08-19T07:19:14;53.08;;;33.67;;
71435;SDS011;59251;51.326;12.370;2022-08-19T07:21:40;58.17;;;34.95;;
71435;SDS011;59251;51.326;12.370;2022-08-19T07:24:06;53.87;;;33.23;;
71435;SDS011;59251;51.326;12.370;2022-08-19T07:26:33;52.57;;;29.97;;
71435;SDS011;59251;51.326;12.370;2022-08-19T07:29:03;53.47;;;32.10;;
71435;SDS011;59251;51.326;12.370;2022-08-19T07:31:29;52.15;;;33.00;;
71435;SDS011;59251;51.326;12.370;2022-08-19T07:33:55;55.07;;;32.53;;
71435;SDS011;59251;51.326;12.370;2022-08-19T07:36:23;43.28;;;27.63;;
71435;SDS011;59251;51.326;12.370;2022-08-19T07:38:57;42.63;;;26.52;;
71435;SDS011;59251;51.326;12.370;2022-08-19T07:41:26;48.40;;;29.00;;
71435;SDS011;59251;51.326;12.370;2022-08-19T07:43:54;45.43;;;28.20;;
71435;SDS011;59251;51.326;12.370;2022-08-19T07:46:20;41.00;;;27.75;;
71435;SDS011;59251;51.326;12.370;2022-08-19T07:48:47;45.38;;;28.98;;
71435;SDS011;59251;51.326;12.370;2022-08-19T07:51:15;42.30;;;28.00;;
71435;SDS011;59251;51.326;12.370;2022-08-19T07:53:43;43.67;;;28.17;;
71435;SDS011;59251;51.326;12.370;2022-08-19T07:56:11;43.60;;;27.90;;
71435;SDS011;59251;51.326;12.370;2022-08-19T07:58:40;43.47;;;27.38;;
71435;SDS011;59251;51.326;12.370;2022-08-19T08:01:07;42.70;;;27.02;;
71435;SDS011;59251;51.326;12.370;2022-08-19T08:03:35;41.03;;;25.38;;
71435;SDS011;59251;51.326;12.370;2022-08-19T08:06:19;40.50;;;25.98;;
71435;SDS011;59251;51.326;12.370;2022-08-19T08:09:04;41.43;;;24.17;;
71435;SDS011;59251;51.326;12.370;2022-08-19T08:11:40;35.28;;;22.80;;
71435;SDS011;59251;51.326;12.370;2022-08-19T08:14:14;39.55;;;24.90;;
71435;SDS011;59251;51.326;12.370;2022-08-19T08:16:40;41.75;;;25.40;;
71435;SDS011;59251;51.326;12.370;2022-08-19T08:19:08;38.70;;;25.08;;
71435;SDS011;59251;51.326;12.370;2022-08-19T08:21:34;39.67;;;24.73;;
71435;SDS011;59251;51.326;12.370;2022-08-19T08:24:00;36.60;;;23.50;;
71435;SDS011;59251;51.326;12.370;2022-08-19T08:26:25;39.50;;;25.42;;
71435;SDS011;59251;51.326;12.370;2022-08-19T08:28:51;36.57;;;25.17;;
71435;SDS011;59251;51.326;12.370;2022-08-19T08:31:18;41.85;;;25.42;;
71435;SDS011;59251;51.326;12.370;2022-08-19T08:33:44;39.17;;;24.85;;
71435;SDS011;59251;51.326;12.370;2022-08-19T08:36:11;40.60;;;26.75;;
71435;SDS011;59251;51.326;12.370;2022-08-19T08:38:39;41.93;;;24.33;;
71435;SDS011;59251;51.326;12.370;2022-08-19T08:41:08;37.00;;;25.20;;
71435;SDS011;59251;51.326;12.370;2022-08-19T08:43:44;40.17;;;24.73;;
71435;SDS011;59251;51.326;12.370;2022-08-19T08:46:19;38.67;;;24.50;;
71435;SDS011;59251;51.326;12.370;2022-08-19T08:51:36;37.97;;;23.40;;
71435;SDS011;59251;51.326;12.370;2022-08-19T08:54:04;37.80;;;24.08;;
71435;SDS011;59251;51.326;12.370;2022-08-19T08:56:32;40.15;;;23.95;;
71435;SDS011;59251;51.326;12.370;2022-08-19T08:58:59;36.25;;;22.75;;
71435;SDS011;59251;51.326;12.370;2022-08-19T09:01:44;36.63;;;23.55;;
71435;SDS011;59251;51.326;12.370;2022-08-19T09:04:10;44.07;;;22.60;;
71435;SDS011;59251;51.326;12.370;2022-08-19T09:06:44;36.00;;;23.08;;
71435;SDS011;59251;51.326;12.370;2022-08-19T09:09:17;37.03;;;23.55;;
71435;SDS011;59251;51.326;12.370;2022-08-19T09:17:15;36.40;;;20.53;;
71435;SDS011;59251;51.326;12.370;2022-08-19T09:22:18;37.97;;;21.30;;
71435;SDS011;59251;51.326;12.370;2022-08-19T09:24:47;34.92;;;20.77;;
71435;SDS011;59251;51.326;12.370;2022-08-19T09:27:17;33.03;;;21.42;;
71435;SDS011;59251;51.326;12.370;2022-08-19T09:29:43;35.50;;;21.43;;
71435;SDS011;59251;51.326;12.370;2022-08-19T09:32:09;33.97;;;21.98;;
71435;SDS011;59251;51.326;12.370;2022-08-19T09:34:35;36.53;;;22.57;;
71435;SDS011;59251;51.326;12.370;2022-08-19T09:37:00;34.70;;;20.93;;
71435;SDS011;59251;51.326;12.370;2022-08-19T09:39:26;32.67;;;22.35;;
71435;SDS011;59251;51.326;12.370;2022-08-19T09:41:51;33.20;;;19.90;;
71435;SDS011;59251;51.326;12.370;2022-08-19T09:44:17;34.60;;;21.13;;
71435;SDS011;59251;51.326;12.370;2022-08-19T09:46:45;32.38;;;20.65;;
71435;SDS011;59251;51.326;12.370;2022-08-19T09:49:12;34.53;;;19.17;;
71435;SDS011;59251;51.326;12.370;2022-08-19T09:51:37;32.80;;;19.70;;
71435;SDS011;59251;51.326;12.370;2022-08-19T09:54:03;33.00;;;20.00;;
71435;SDS011;59251;51.326;12.370;2022-08-19T09:56:29;30.42;;;20.00;;
71435;SDS011;59251;51.326;12.370;2022-08-19T09:58:57;31.33;;;20.27;;
71435;SDS011;59251;51.326;12.370;2022-08-19T10:01:25;32.05;;;20.02;;
71435;SDS011;59251;51.326;12.370;2022-08-19T10:03:53;29.15;;;19.80;;
71435;SDS011;59251;51.326;12.370;2022-08-19T10:06:20;31.48;;;19.77;;
71435;SDS011;59251;51.326;12.370;2022-08-19T10:08:48;26.50;;;16.50;;
71435;SDS011;59251;51.326;12.370;2022-08-19T10:11:13;30.83;;;19.20;;
71435;SDS011;59251;51.326;12.370;2022-08-19T10:13:41;28.45;;;17.30;;
71435;SDS011;59251;51.326;12.370;2022-08-19T10:16:08;27.10;;;16.30;;
71435;SDS011;59251;51.326;12.370;2022-08-19T10:18:36;23.67;;;13.45;;
71435;SDS011;59251;51.326;12.370;2022-08-19T10:21:21;25.00;;;15.38;;
71435;SDS011;59251;51.326;12.370;2022-08-19T10:23:50;27.40;;;16.30;;
71435;SDS011;59251;51.326;12.370;2022-08-19T10:26:21;25.58;;;14.95;;
71435;SDS011;59251;51.326;12.370;2022-08-19T10:28:51;22.10;;;13.43;;
71435;SDS011;59251;51.326;12.370;2022-08-19T10:31:17;21.63;;;14.13;;
71435;SDS011;59251;51.326;12.370;2022-08-19T10:33:46;24.63;;;15.03;;
71435;SDS011;59251;51.326;12.370;2022-08-19T10:36:22;21.77;;;13.60;;
71435;SDS011;59251;51.326;12.370;2022-08-19T10:38:50;20.73;;;13.65;;
71435;SDS011;59251;51.326;12.370;2022-08-19T10:41:19;22.98;;;14.07;;
71435;SDS011;59251;51.326;12.370;2022-08-19T10:43:53;21.30;;;12.90;;
71435;SDS011;59251;51.326;12.370;2022-08-19T10:46:20;23.13;;;13.93;;
71435;SDS011;59251;51.326;12.370;2022-08-19T10:48:47;22.00;;;14.20;;
71435;SDS011;59251;51.326;12.370;2022-08-19T10:51:14;21.02;;;13.05;;
71435;SDS011;59251;51.326;12.370;2022-08-19T10:53:58;23.98;;;13.27;;
71435;SDS011;59251;51.326;12.370;2022-08-19T10:56:25;23.77;;;13.65;;
71435;SDS011;59251;51.326;12.370;2022-08-19T10:59:09;20.10;;;12.30;;
71435;SDS011;59251;51.326;12.370;2022-08-19T11:01:36;19.40;;;11.77;;
71435;SDS011;59251;51.326;12.370;2022-08-19T11:04:02;21.07;;;13.00;;
71435;SDS011;59251;51.326;12.370;2022-08-19T11:06:30;19.73;;;12.25;;
71435;SDS011;59251;51.326;12.370;2022-08-19T11:08:57;18.05;;;10.38;;
71435;SDS011;59251;51.326;12.370;2022-08-19T11:11:22;19.37;;;12.47;;
71435;SDS011;59251;51.326;12.370;2022-08-19T11:13:48;31.73;;;20.65;;
71435;SDS011;59251;51.326;12.370;2022-08-19T11:16:19;21.33;;;11.13;;
71435;SDS011;59251;51.326;12.370;2022-08-19T11:18:50;21.00;;;12.00;;
71435;SDS011;59251;51.326;12.370;2022-08-19T11:21:20;20.20;;;11.18;;
71435;SDS011;59251;51.326;12.370;2022-08-19T11:23:58;18.23;;;11.00;;
71435;SDS011;59251;51.326;12.370;2022-08-19T11:26:25;19.27;;;11.45;;
71435;SDS011;59251;51.326;12.370;2022-08-19T11:28:54;19.58;;;10.57;;
71435;SDS011;59251;51.326;12.370;2022-08-19T11:31:24;20.13;;;11.73;;
71435;SDS011;59251;51.326;12.370;2022-08-19T11:33:56;18.27;;;10.73;;
71435;SDS011;59251;51.326;12.370;2022-08-19T11:36:22;17.42;;;10.40;;
71435;SDS011;59251;51.326;12.370;2022-08-19T11:38:49;17.10;;;10.00;;
71435;SDS011;59251;51.326;12.370;2022-08-19T11:41:17;20.65;;;10.30;;
71435;SDS011;59251;51.326;12.370;2022-08-19T11:43:44;17.77;;;11.10;;
71435;SDS011;59251;51.326;12.370;2022-08-19T11:46:11;18.40;;;10.13;;
71435;SDS011;59251;51.326;12.370;2022-08-19T11:48:38;16.07;;;9.47;;
71435;SDS011;59251;51.326;12.370;2022-08-19T11:51:06;18.55;;;9.63;;
71435;SDS011;59251;51.326;12.370;2022-08-19T11:53:34;17.40;;;9.82;;
71435;SDS011;59251;51.326;12.370;2022-08-19T11:56:00;16.15;;;9.75;;
71435;SDS011;59251;51.326;12.370;2022-08-19T11:58:25;14.80;;;9.27;;
71435;SDS011;59251;51.326;12.370;2022-08-19T12:00:51;16.33;;;9.90;;
71435;SDS011;59251;51.326;12.370;2022-08-19T12:03:17;18.83;;;10.32;;
71435;SDS011;59251;51.326;12.370;2022-08-19T12:05:44;17.48;;;10.07;;
71435;SDS011;59251;51.326;12.370;2022-08-19T12:08:10;16.02;;;9.32;;
71435;SDS011;59251;51.326;12.370;2022-08-19T12:10:38;16.50;;;9.98;;
71435;SDS011;59251;51.326;12.370;2022-08-19T12:13:04;15.40;;;9.50;;
71435;SDS011;59251;51.326;12.370;2022-08-19T12:15:35;15.68;;;8.63;;
71435;SDS011;59251;51.326;12.370;2022-08-19T12:18:02;15.25;;;8.80;;
71435;SDS011;59251;51.326;12.370;2022-08-19T12:20:28;15.40;;;9.30;;
71435;SDS011;59251;51.326;12.370;2022-08-19T12:22:54;16.20;;;9.73;;
71435;SDS011;59251;51.326;12.370;2022-08-19T12:25:19;15.20;;;8.30;;
71435;SDS011;59251;51.326;12.370;2022-08-19T12:27:45;12.88;;;7.90;;
71435;SDS011;59251;51.326;12.370;2022-08-19T12:30:11;15.32;;;8.40;;
71435;SDS011;59251;51.326;12.370;2022-08-19T12:32:38;15.25;;;9.07;;
71435;SDS011;59251;51.326;12.370;2022-08-19T12:35:05;15.63;;;8.97;;
71435;SDS011;59251;51.326;12.370;2022-08-19T12:37:31;15.13;;;9.35;;
71435;SDS011;59251;51.326;12.370;2022-08-19T12:39:57;14.45;;;9.10;;
71435;SDS011;59251;51.326;12.370;2022-08-19T12:42:23;15.83;;;9.23;;
71435;SDS011;59251;51.326;12.370;2022-08-19T12:44:48;16.45;;;9.48;;
71435;SDS011;59251;51.326;12.370;2022-08-19T12:47:14;13.97;;;8.50;;
71435;SDS011;59251;51.326;12.370;2022-08-19T12:49:40;17.10;;;9.83;;
71435;SDS011;59251;51.326;12.370;2022-08-19T12:52:07;14.48;;;9.30;;
71435;SDS011;59251;51.326;12.370;2022-08-19T12:54:34;16.30;;;10.07;;
71435;SDS011;59251;51.326;12.370;2022-08-19T12:57:04;18.67;;;11.30;;
71435;SDS011;59251;51.326;12.370;2022-08-19T12:59:30;14.53;;;10.03;;
71435;SDS011;59251;51.326;12.370;2022-08-19T13:01:55;18.30;;;11.37;;
71435;SDS011;59251;51.326;12.370;2022-08-19T13:04:21;17.00;;;9.68;;
71435;SDS011;59251;51.326;12.370;2022-08-19T13:06:46;14.93;;;10.43;;
71435;SDS011;59251;51.326;12.370;2022-08-19T13:09:12;17.70;;;12.20;;
71435;SDS011;59251;51.326;12.370;2022-08-19T13:11:37;17.55;;;11.52;;
71435;SDS011;59251;51.326;12.370;2022-08-19T13:14:03;17.67;;;11.53;;
71435;SDS011;59251;51.326;12.370;2022-08-19T13:16:29;17.75;;;10.75;;
71435;SDS011;59251;51.326;12.370;2022-08-19T13:18:55;17.53;;;10.33;;
71435;SDS011;59251;51.326;12.370;2022-08-19T13:21:22;16.85;;;11.23;;
71435;SDS011;59251;51.326;12.370;2022-08-19T13:23:52;16.73;;;11.15;;
71435;SDS011;59251;51.326;12.370;2022-08-19T13:26:19;17.20;;;11.55;;
71435;SDS011;59251;51.326;12.370;2022-08-19T13:28:45;16.58;;;11.52;;
71435;SDS011;59251;51.326;12.370;2022-08-19T13:31:30;15.67;;;11.00;;
71435;SDS011;59251;51.326;12.370;2022-08-19T13:34:17;15.25;;;10.88;;
71435;SDS011;59251;51.326;12.370;2022-08-19T13:36:44;19.40;;;12.88;;
71435;SDS011;59251;51.326;12.370;2022-08-19T13:39:10;19.08;;;11.75;;
71435;SDS011;59251;51.326;12.370;2022-08-19T13:41:36;18.80;;;11.37;;
71435;SDS011;59251;51.326;12.370;2022-08-19T13:44:07;18.48;;;11.82;;
71435;SDS011;59251;51.326;12.370;2022-08-19T13:46:33;18.43;;;11.80;;
71435;SDS011;59251;51.326;12.370;2022-08-19T13:48:58;18.13;;;12.27;;
71435;SDS011;59251;51.326;12.370;2022-08-19T13:51:23;18.03;;;11.83;;
71435;SDS011;59251;51.326;12.370;2022-08-19T13:53:49;18.17;;;11.17;;
71435;SDS011;59251;51.326;12.370;2022-08-19T13:56:16;18.55;;;11.90;;
71435;SDS011;59251;51.326;12.370;2022-08-19T13:58:44;19.42;;;12.45;;
71435;SDS011;59251;51.326;12.370;2022-08-19T14:01:11;19.38;;;12.52;;
71435;SDS011;59251;51.326;12.370;2022-08-19T14:03:37;17.77;;;11.87;;
71435;SDS011;59251;51.326;12.370;2022-08-19T14:06:03;19.77;;;12.75;;
71435;SDS011;59251;51.326;12.370;2022-08-19T14:08:28;20.60;;;11.70;;
71435;SDS011;59251;51.326;12.370;2022-08-19T14:10:56;20.40;;;13.20;;
71435;SDS011;59251;51.326;12.370;2022-08-19T14:13:22;20.45;;;11.75;;
71435;SDS011;59251;51.326;12.370;2022-08-19T14:15:49;19.55;;;12.07;;
71435;SDS011;59251;51.326;12.370;2022-08-19T14:18:15;19.05;;;11.60;;
71435;SDS011;59251;51.326;12.370;2022-08-19T14:20:42;16.73;;;11.18;;
71435;SDS011;59251;51.326;12.370;2022-08-19T14:23:08;18.37;;;11.37;;
71435;SDS011;59251;51.326;12.370;2022-08-19T14:25:33;17.58;;;10.88;;
71435;SDS011;59251;51.326;12.370;2022-08-19T14:27:59;16.97;;;10.77;;
71435;SDS011;59251;51.326;12.370;2022-08-19T14:30:32;16.00;;;10.02;;